Time;durP1;ratioP1;P1;durP2;ratioP2;P2;SDS_P1;SDS_P2;PMS_P1;PMS_P2;Temp;Humidity;BMP_temperature;BMP_pressure;BME280_temperature;BME280_humidity;BME280_pressure;Samples;Min_cycle;Max_cycle;Signal;HPM_P1;HPM_P2
2024/03/10 00:08:44;;;;;;;;;;;10.60;99.90;;;;;;21105007;28;19912;-78
2024/03/10 00:18:45;;;;;;;;;;;10.60;99.90;;;;;;21090591;28;19965;-79
2024/03/10 00:28:48;;;;;;;;;;;10.30;99.90;;;;;;21113757;28;19913;-78
2024/03/10 00:38:48;;;;;;;;;;;10.10;99.90;;;;;;21114867;28;20402;-79
2024/03/10 00:48:49;;;;;;;;;;;10.20;99.90;;;;;;21118743;28;19973;-79
2024/03/10 00:58:50;;;;;;;;;;;10.10;99.90;;;;;;21100836;28;19927;-79
2024/03/10 01:08:50;;;;;;;;;;;9.90;99.90;;;;;;21113520;28;19912;-79
2024/03/10 01:18:52;;;;;;;;;;;9.60;99.90;;;;;;21102753;28;19916;-79
2024/03/10 01:28:53;;;;;;;;;;;9.20;99.90;;;;;;21108448;28;19919;-79
2024/03/10 01:38:53;;;;;;;;;;;9.20;99.90;;;;;;21110054;28;19916;-79
2024/03/10 01:48:54;;;;;;;;;;;9.30;99.90;;;;;;21103292;28;19999;-79
2024/03/10 01:58:55;;;;;;;;;;;9.30;99.90;;;;;;21099435;28;19916;-78
2024/03/10 02:08:55;;;;;;;;;;;9.20;99.90;;;;;;21031593;28;1811039;-79
2024/03/10 02:18:56;;;;;;;;;;;9.10;99.90;;;;;;21114887;28;19934;-79
2024/03/10 02:29:04;;;;;;;;;;;9.00;99.90;;;;;;21104827;28;19912;-79
2024/03/10 02:49:24;;;;;;;;;;;8.90;99.90;;;;;;21103085;28;19915;-79
2024/03/10 02:59:25;;;;;;;;;;;8.90;99.90;;;;;;21100295;28;19923;-79
2024/03/10 03:09:26;;;;;;;;;;;8.90;99.90;;;;;;21101352;28;19987;-79
2024/03/10 03:19:26;;;;;;;;;;;8.70;99.90;;;;;;21094452;28;19985;-79
2024/03/10 03:29:27;;;;;;;;;;;8.50;99.90;;;;;;21100309;28;19916;-79
2024/03/10 03:39:28;;;;;;;;;;;8.60;99.90;;;;;;21090999;28;19971;-80
2024/03/10 03:49:29;;;;;;;;;;;8.60;99.90;;;;;;21104885;28;20327;-79
2024/03/10 03:59:30;;;;;;;;;;;8.40;99.90;;;;;;21093295;28;19916;-79
2024/03/10 04:09:30;;;;;;;;;;;8.80;99.90;;;;;;21104074;28;19916;-79
2024/03/10 04:19:31;;;;;;;;;;;8.70;99.90;;;;;;21114559;28;20014;-78
2024/03/10 04:29:32;;;;;;;;;;;8.50;99.90;;;;;;21096716;28;19971;-79
2024/03/10 04:39:32;;;;;;;;;;;8.50;99.90;;;;;;21095050;28;19916;-80
2024/03/10 04:49:33;;;;;;;;;;;8.50;99.90;;;;;;21107301;28;19912;-79
2024/03/10 04:59:34;;;;;;;;;;;8.40;99.90;;;;;;21097203;28;19916;-80
2024/03/10 05:09:35;;;;;;;;;;;8.30;99.90;;;;;;21115563;28;19916;-79
2024/03/10 05:19:35;;;;;;;;;;;8.50;99.90;;;;;;21111646;28;19923;-79
2024/03/10 05:29:36;;;;;;;;;;;8.70;99.90;;;;;;21107401;28;19912;-79
2024/03/10 05:39:37;;;;;;;;;;;8.80;99.90;;;;;;21127209;28;19916;-79
2024/03/10 05:49:38;;;;;;;;;;;9.00;99.90;;;;;;21113032;28;19923;-80
2024/03/10 05:59:38;;;;;;;;;;;8.60;99.90;;;;;;21108035;28;20015;-80
2024/03/10 06:09:39;;;;;;;;;;;8.50;99.90;;;;;;21106962;28;19927;-78
2024/03/10 06:29:59;;;;;;;;;;;8.50;99.90;;;;;;21122966;28;19954;-78
2024/03/10 06:40:00;;;;;;;;;;;8.70;99.90;;;;;;21124336;28;19916;-79
2024/03/10 06:50:00;;;;;;;;;;;8.70;99.90;;;;;;21109584;28;19965;-79
2024/03/10 07:00:01;;;;;;;;;;;8.50;99.90;;;;;;21059116;28;19916;-78
2024/03/10 07:10:02;;;;;;;;;;;8.50;99.90;;;;;;21057301;28;19916;-80
2024/03/10 07:20:03;;;;;;;;;;;8.40;99.90;;;;;;21095558;28;20039;-81
2024/03/10 07:30:04;;;;;;;;;;;7.90;99.90;;;;;;21077278;28;19912;-79
2024/03/10 07:40:16;;;;;;;;;;;7.90;99.90;;;;;;21096767;28;19916;-80
2024/03/10 07:50:18;;;;;;;;;;;7.70;99.90;;;;;;21074097;28;19939;-79
2024/03/10 08:00:22;;;;;;;;;;;7.60;99.90;;;;;;21051184;28;19924;-82
2024/03/10 08:10:23;;;;;;;;;;;7.50;99.90;;;;;;21071524;28;19916;-80
2024/03/10 08:20:24;;;;;;;;;;;7.50;99.90;;;;;;21070021;28;19916;-82
2024/03/10 08:30:25;;;;;;;;;;;7.80;99.90;;;;;;21062124;28;19912;-80
2024/03/10 08:40:26;;;;;;;;;;;8.10;99.90;;;;;;21069950;28;19916;-78
2024/03/10 08:50:28;;;;;;;;;;;8.20;99.90;;;;;;21110059;28;19912;-78
2024/03/10 09:00:30;;;;;;;;;;;8.20;99.90;;;;;;21087596;28;19973;-78
2024/03/10 09:10:30;;;;;;;;;;;8.30;99.90;;;;;;21080736;28;19917;-79
2024/03/10 09:20:31;;;;;;;;;;;8.40;99.90;;;;;;21108636;28;20011;-83
2024/03/10 09:30:32;;;;;;;;;;;8.50;99.90;;;;;;21088441;28;20375;-77
2024/03/10 09:40:33;;;;;;;;;;;8.80;99.90;;;;;;21096140;28;19923;-80
2024/03/10 09:50:34;;;;;;;;;;;8.90;99.90;;;;;;21101854;28;19999;-79
2024/03/10 10:00:35;;;;;;;;;;;9.60;99.90;;;;;;21072385;28;19923;-80
2024/03/10 10:10:36;;;;;;;;;;;10.50;99.90;;;;;;21102434;28;19944;-80
2024/03/10 10:20:37;;;;;;;;;;;10.10;99.90;;;;;;21106644;28;19944;-81
2024/03/10 10:30:40;;;;;;;;;;;10.60;99.90;;;;;;21068997;28;19916;-80
2024/03/10 10:40:41;;;;;;;;;;;11.70;99.90;;;;;;21082424;28;19924;-78
2024/03/10 10:50:47;;;;;;;;;;;11.50;99.90;;;;;;21071807;28;20399;-79
2024/03/10 11:00:52;;;;;;;;;;;10.60;99.90;;;;;;21057320;28;20178;-81
2024/03/10 11:10:54;;;;;;;;;;;10.50;99.90;;;;;;21068455;28;19923;-82
2024/03/10 11:20:56;;;;;;;;;;;10.10;99.90;;;;;;21075944;28;20375;-80
2024/03/10 11:30:56;;;;;;;;;;;9.80;99.90;;;;;;21058961;28;19913;-82
2024/03/10 11:40:58;;;;;;;;;;;9.70;99.90;;;;;;21049923;28;19923;-81
2024/03/10 11:50:59;;;;;;;;;;;9.70;99.90;;;;;;21033001;28;19983;-81
2024/03/10 12:01:05;;;;;;;;;;;9.40;99.90;;;;;;21096772;28;19916;-81
2024/03/10 12:11:06;;;;;;;;;;;9.60;99.90;;;;;;21051050;28;19916;-80
2024/03/10 12:21:14;;;;;;;;;;;9.60;99.90;;;;;;21086832;28;19939;-79
2024/03/10 12:31:16;;;;;;;;;;;9.50;99.90;;;;;;21045579;28;20363;-78
2024/03/10 12:41:23;;;;;;;;;;;9.40;99.90;;;;;;21033658;28;19971;-82
2024/03/10 12:51:24;;;;;;;;;;;9.20;99.90;;;;;;21047932;28;19923;-82
2024/03/10 13:01:26;;;;;;;;;;;9.10;99.90;;;;;;21047530;28;19947;-80
2024/03/10 13:11:27;;;;;;;;;;;9.20;99.90;;;;;;21058531;28;19923;-79
2024/03/10 13:21:28;;;;;;;;;;;9.10;99.90;;;;;;21031613;28;19920;-82
2024/03/10 13:31:30;;;;;;;;;;;8.90;99.90;;;;;;21048517;28;20422;-77
2024/03/10 13:41:31;;;;;;;;;;;8.90;99.90;;;;;;21042675;28;20006;-80
2024/03/10 13:51:31;;;;;;;;;;;8.80;99.90;;;;;;21049844;28;19912;-77
2024/03/10 14:01:33;;;;;;;;;;;8.70;99.90;;;;;;21087365;28;19917;-77
2024/03/10 14:11:34;;;;;;;;;;;8.50;99.90;;;;;;21131242;28;19935;-78
2024/03/10 14:21:35;;;;;;;;;;;8.40;99.90;;;;;;21077264;28;19917;-80
2024/03/10 14:31:37;;;;;;;;;;;8.30;99.90;;;;;;21034553;28;19982;-78
2024/03/10 14:41:39;;;;;;;;;;;8.20;99.90;;;;;;21022068;28;19922;-78
2024/03/10 14:51:40;;;;;;;;;;;8.00;99.90;;;;;;21026425;28;19912;-77
2024/03/10 15:01:41;;;;;;;;;;;7.90;99.90;;;;;;21023791;28;20001;-77
2024/03/10 15:11:42;;;;;;;;;;;7.80;99.90;;;;;;21043721;28;20441;-80
2024/03/10 15:21:44;;;;;;;;;;;7.70;99.90;;;;;;21025366;28;20018;-79
2024/03/10 15:31:44;;;;;;;;;;;7.70;99.90;;;;;;21021916;28;20003;-81
2024/03/10 15:41:45;;;;;;;;;;;7.60;99.90;;;;;;21047771;28;19917;-80
2024/03/10 15:51:46;;;;;;;;;;;7.50;99.90;;;;;;21045097;28;19912;-81
2024/03/10 16:01:46;;;;;;;;;;;7.20;99.90;;;;;;21045645;28;19923;-81
2024/03/10 16:11:49;;;;;;;;;;;7.00;99.90;;;;;;21046205;28;19927;-81
2024/03/10 16:21:54;;;;;;;;;;;6.90;99.90;;;;;;21035331;28;20023;-80
2024/03/10 16:31:56;;;;;;;;;;;6.80;99.90;;;;;;21048641;28;19920;-81
2024/03/10 16:41:56;;;;;;;;;;;6.80;99.90;;;;;;21086361;28;19926;-81
2024/03/10 16:51:57;;;;;;;;;;;6.80;99.90;;;;;;21085432;28;19912;-82
2024/03/10 17:01:58;;;;;;;;;;;6.90;99.90;;;;;;21092223;28;19963;-78
2024/03/10 17:11:58;;;;;;;;;;;7.00;99.90;;;;;;21112926;28;20007;-80
2024/03/10 17:21:59;;;;;;;;;;;7.00;99.90;;;;;;21103280;28;19920;-79
2024/03/10 17:32:00;;;;;;;;;;;7.00;99.90;;;;;;21109713;28;19912;-80
2024/03/10 17:42:01;;;;;;;;;;;7.00;99.90;;;;;;21107255;28;19963;-82
2024/03/10 17:52:02;;;;;;;;;;;6.90;99.90;;;;;;21088514;28;19916;-78
2024/03/10 18:02:03;;;;;;;;;;;6.80;99.90;;;;;;21102934;28;20007;-81
2024/03/10 18:12:03;;;;;;;;;;;6.80;99.90;;;;;;21095456;28;19923;-82
2024/03/10 18:22:04;;;;;;;;;;;6.90;99.90;;;;;;21097482;28;19939;-81
2024/03/10 18:32:05;;;;;;;;;;;6.90;99.90;;;;;;21097816;28;19912;-82
2024/03/10 18:42:06;;;;;;;;;;;6.80;99.90;;;;;;21093586;28;19923;-82
2024/03/10 18:52:07;;;;;;;;;;;6.60;99.90;;;;;;21091156;28;19912;-81
2024/03/10 19:02:08;;;;;;;;;;;6.50;99.90;;;;;;21090422;28;19916;-79
2024/03/10 19:12:09;;;;;;;;;;;6.50;99.90;;;;;;21087773;28;19927;-81
2024/03/10 19:22:10;;;;;;;;;;;6.50;99.90;;;;;;21088284;28;20287;-80
2024/03/10 19:32:10;;;;;;;;;;;6.50;99.90;;;;;;21105886;28;19919;-81
2024/03/10 19:42:11;;;;;;;;;;;6.60;99.90;;;;;;21100282;28;20382;-81
2024/03/10 19:52:12;;;;;;;;;;;6.50;99.90;;;;;;21104138;28;19916;-77
2024/03/10 20:02:13;;;;;;;;;;;6.50;99.90;;;;;;21101945;28;19916;-79
2024/03/10 20:12:14;;;;;;;;;;;6.30;99.90;;;;;;21096950;28;19961;-78
2024/03/10 20:22:15;;;;;;;;;;;6.20;99.90;;;;;;21089854;28;20275;-79
2024/03/10 20:32:16;;;;;;;;;;;6.10;99.90;;;;;;21086375;28;19912;-83
2024/03/10 20:42:17;;;;;;;;;;;5.80;99.90;;;;;;21106940;28;19923;-82
2024/03/10 20:52:18;;;;;;;;;;;5.50;99.90;;;;;;21101723;28;19973;-81
2024/03/10 21:02:18;;;;;;;;;;;5.30;99.90;;;;;;21107402;28;19920;-82
2024/03/10 21:12:20;;;;;;;;;;;5.20;99.90;;;;;;21086498;28;19943;-81
2024/03/10 21:22:22;;;;;;;;;;;5.20;99.90;;;;;;21095069;28;20379;-79
2024/03/10 21:32:23;;;;;;;;;;;4.90;99.90;;;;;;21099209;28;19912;-80
2024/03/10 21:42:23;;;;;;;;;;;4.90;99.90;;;;;;21103947;28;19970;-76
2024/03/10 21:52:25;;;;;;;;;;;4.90;99.90;;;;;;21095823;28;20003;-81
2024/03/10 22:02:26;;;;;;;;;;;4.90;99.90;;;;;;21073447;28;20387;-80
2024/03/10 22:12:26;;;;;;;;;;;4.50;99.90;;;;;;21056025;28;19926;-77
2024/03/10 22:22:27;;;;;;;;;;;4.20;99.90;;;;;;21065802;28;19923;-74
2024/03/10 22:32:28;;;;;;;;;;;4.10;99.90;;;;;;21087711;28;19966;-77
2024/03/10 22:42:28;;;;;;;;;;;4.00;99.90;;;;;;21053742;28;19916;-81
2024/03/10 22:52:32;;;;;;;;;;;3.80;99.90;;;;;;21047623;28;19939;-76
2024/03/10 23:02:33;;;;;;;;;;;3.70;99.90;;;;;;21032414;28;19916;-82
2024/03/10 23:12:33;;;;;;;;;;;3.60;99.90;;;;;;21025278;28;19916;-81
2024/03/10 23:22:34;;;;;;;;;;;3.30;99.90;;;;;;21032548;28;19998;-82
2024/03/10 23:32:35;;;;;;;;;;;3.00;99.90;;;;;;21053488;28;19916;-81
2024/03/10 23:42:35;;;;;;;;;;;2.90;99.90;;;;;;21031937;28;20287;-80
2024/03/10 23:52:38;;;;;;;;;;;2.80;99.90;;;;;;21036047;28;19923;-81
